Time;durP1;ratioP1;P1;durP2;ratioP2;P2;SDS_P1;SDS_P2;PMS_P1;PMS_P2;Temp;Humidity;BMP_temperature;BMP_pressure;BME280_temperature;BME280_humidity;BME280_pressure;Samples;Min_cycle;Max_cycle;Signal;HPM_P1;HPM_P2
2023/03/01 00:01:23;;;;;;;51.30;19.83;;;;;;;-144.73;82.48;54331.75;5084535;28;20062;-71
2023/03/01 00:03:49;;;;;;;58.77;20.57;;;;;;;-144.73;82.79;54329.72;5084665;28;20035;-71
2023/03/01 00:06:16;;;;;;;49.30;21.57;;;;;;;-144.73;82.56;54411.81;5084740;28;20119;-71
2023/03/01 00:08:41;;;;;;;55.27;24.17;;;;;;;-144.73;82.04;54366.66;5081535;28;20032;-71
2023/03/01 00:11:11;;;;;;;50.07;21.50;;;;;;;-144.73;82.62;54354.34;5072693;28;20047;-71
2023/03/01 00:13:37;;;;;;;49.10;22.03;;;;;;;-144.73;82.86;54335.88;5080594;28;20024;-71
2023/03/01 00:16:08;;;;;;;47.63;21.00;;;;;;;-144.73;82.70;54393.34;5089219;28;20050;-71
2023/03/01 00:18:34;;;;;;;55.03;21.60;;;;;;;-144.73;82.84;54321.50;5073122;28;20020;-71
2023/03/01 00:20:59;;;;;;;48.13;21.00;;;;;;;-144.73;82.38;54391.28;5080534;28;20100;-71
2023/03/01 00:23:25;;;;;;;47.70;21.13;;;;;;;-144.73;84.44;54350.22;5072839;28;20391;-71
2023/03/01 00:25:51;;;;;;;48.40;21.83;;;;;;;-144.73;85.87;54358.44;5082091;28;20388;-71
2023/03/01 00:28:18;;;;;;;51.37;22.47;;;;;;;-144.73;85.00;54356.38;5079362;28;20024;-71
2023/03/01 00:30:44;;;;;;;51.90;20.87;;;;;;;-144.73;84.41;54360.50;5080474;28;20105;-71
2023/03/01 00:33:10;;;;;;;53.33;21.87;;;;;;;-144.73;87.47;54350.22;5082081;28;20054;-71
2023/03/01 00:35:35;;;;;;;50.03;21.73;;;;;;;-144.73;86.70;54362.53;5076733;28;20036;-71
2023/03/01 00:38:02;;;;;;;56.00;20.93;;;;;;;-144.73;88.16;54362.53;5089031;28;20023;-71
2023/03/01 00:40:29;;;;;;;52.17;22.37;;;;;;;-144.73;88.69;54358.44;5090565;28;20036;-71
2023/03/01 00:42:57;;;;;;;52.47;21.10;;;;;;;-144.73;88.20;54350.22;5078730;28;20472;-72
2023/03/01 00:45:23;;;;;;;52.83;22.47;;;;;;;-144.73;86.74;54358.44;5072776;28;20106;-73
2023/03/01 00:47:49;;;;;;;44.20;20.63;;;;;;;-144.73;86.43;54385.13;5090651;28;20119;-73
2023/03/01 00:50:15;;;;;;;47.90;20.73;;;;;;;-144.73;86.17;54337.91;5072083;28;20539;-72
2023/03/01 00:52:40;;;;;;;61.17;23.40;;;;;;;-144.73;85.91;54391.28;5072554;28;20115;-73
2023/03/01 00:55:06;;;;;;;52.53;19.93;;;;;;;-144.73;86.29;54329.72;5089146;28;20027;-72
2023/03/01 00:57:32;;;;;;;51.30;23.37;;;;;;;-144.73;86.31;54374.84;5071960;28;20121;-73
2023/03/01 00:59:57;;;;;;;45.70;21.27;;;;;;;-144.73;85.45;54407.69;5090561;28;20028;-73
2023/03/01 01:02:23;;;;;;;67.17;21.90;;;;;;;-144.73;85.26;54378.97;5098520;28;20070;-73
2023/03/01 01:04:49;;;;;;;51.30;21.67;;;;;;;-144.73;84.88;54350.22;5108042;28;20039;-72
2023/03/01 01:07:14;;;;;;;55.87;22.37;;;;;;;-144.73;84.40;54366.66;5102043;28;20032;-73
2023/03/01 01:09:40;;;;;;;56.37;21.73;;;;;;;-144.73;86.88;54374.84;5102672;28;20115;-73
2023/03/01 01:12:06;;;;;;;52.87;22.40;;;;;;;-144.73;86.59;54378.97;5061807;28;20122;-73
2023/03/01 01:14:31;;;;;;;46.03;20.77;;;;;;;-144.73;85.62;54407.69;5090322;28;20028;-73
2023/03/01 01:16:56;;;;;;;50.20;21.43;;;;;;;-144.73;84.83;54358.44;5080239;28;20043;-71
2023/03/01 01:19:23;;;;;;;48.27;20.90;;;;;;;-144.73;84.63;54350.22;5072295;28;20038;-70
2023/03/01 01:21:48;;;;;;;51.03;20.23;;;;;;;-144.73;83.85;54325.59;5071803;28;20122;-71
2023/03/01 01:24:14;;;;;;;56.13;21.30;;;;;;;-144.73;83.68;54370.75;5083420;28;20106;-71
2023/03/01 01:26:41;;;;;;;49.50;20.87;;;;;;;-144.73;84.33;54346.13;5075162;28;20039;-71
2023/03/01 01:29:06;;;;;;;50.87;20.93;;;;;;;-144.73;84.54;54354.34;5075240;28;20047;-72
2023/03/01 01:31:33;;;;;;;52.37;20.93;;;;;;;-144.73;84.65;54342.03;5092222;28;20501;-71
2023/03/01 01:34:00;;;;;;;46.23;19.07;;;;;;;-144.73;85.32;54383.06;5081435;28;20070;-71
2023/03/01 01:36:26;;;;;;;48.90;22.47;;;;;;;-144.73;85.25;54387.19;5080097;28;20032;-71
2023/03/01 01:38:51;;;;;;;50.77;22.23;;;;;;;-144.73;86.81;54358.44;5107545;28;20027;-71
2023/03/01 01:41:17;;;;;;;52.87;20.90;;;;;;;-144.73;87.14;54362.53;5078628;28;20032;-71
2023/03/01 01:43:47;;;;;;;60.67;24.23;;;;;;;-144.73;87.93;54325.59;5072082;28;20030;-71
2023/03/01 01:46:30;;;;;;;49.63;21.77;;;;;;;-144.73;87.83;54368.69;5089653;28;20032;-71
2023/03/01 01:49:17;;;;;;;52.67;22.20;;;;;;;-144.73;87.88;54360.50;5098379;28;20089;-71
2023/03/01 01:51:47;;;;;;;61.70;20.20;;;;;;;-144.73;87.16;54309.19;5105303;28;20036;-71
2023/03/01 01:54:21;;;;;;;54.83;21.83;;;;;;;-144.73;87.08;54342.03;5092317;28;20084;-72
2023/03/01 01:56:54;;;;;;;46.97;19.77;;;;;;;-144.73;86.32;54333.81;5079925;28;20535;-71
2023/03/01 01:59:24;;;;;;;42.23;19.60;;;;;;;-144.73;85.90;54366.66;5090294;28;20031;-71
2023/03/01 02:01:51;;;;;;;42.73;18.63;;;;;;;-144.73;85.84;54366.66;5089371;28;20120;-71
2023/03/01 02:04:17;;;;;;;38.57;17.53;;;;;;;-144.73;86.00;54395.38;5079090;28;20030;-71
2023/03/01 02:06:56;;;;;;;46.73;19.17;;;;;;;-144.73;85.87;54337.91;5071549;28;20040;-71
2023/03/01 02:09:23;;;;;;;46.80;18.33;;;;;;;-144.73;85.56;54391.28;5076669;28;20464;-71
2023/03/01 02:11:50;;;;;;;40.17;17.40;;;;;;;-144.73;85.93;54346.13;5082753;28;20036;-71
2023/03/01 02:14:17;;;;;;;43.73;19.40;;;;;;;-144.73;85.04;54383.06;5093663;28;20012;-71
2023/03/01 02:16:43;;;;;;;42.30;18.50;;;;;;;-144.73;84.48;54372.81;5087913;28;20036;-71
2023/03/01 02:19:19;;;;;;;40.43;18.03;;;;;;;-144.73;84.60;54325.59;5071871;28;20099;-71
2023/03/01 02:22:06;;;;;;;42.33;18.93;;;;;;;-144.73;84.41;54354.34;5079520;28;20096;-71
2023/03/01 02:24:52;;;;;;;41.17;19.17;;;;;;;-144.73;85.17;54354.34;5075133;28;20427;-71
2023/03/01 02:27:21;;;;;;;41.77;19.07;;;;;;;-144.73;84.83;54366.66;5100880;28;20063;-71
2023/03/01 02:29:47;;;;;;;44.97;19.20;;;;;;;-144.73;83.93;54342.03;5079380;28;20018;-71
2023/03/01 02:32:15;;;;;;;41.77;18.27;;;;;;;-144.73;83.84;54374.84;5086190;28;20035;-71
2023/03/01 02:34:40;;;;;;;42.77;17.50;;;;;;;-144.73;83.94;54358.44;5079916;28;20081;-71
2023/03/01 02:37:14;;;;;;;50.03;18.20;;;;;;;-144.73;84.02;54395.38;5092208;28;20223;-71
2023/03/01 02:39:47;;;;;;;43.27;18.27;;;;;;;-144.73;83.78;54354.34;5086620;28;20022;-71
2023/03/01 02:42:16;;;;;;;46.03;18.90;;;;;;;-144.73;83.43;54391.28;5077873;28;20036;-71
2023/03/01 02:44:42;;;;;;;47.87;17.17;;;;;;;-144.73;84.96;54342.03;5079123;28;20024;-71
2023/03/01 02:47:07;;;;;;;37.97;16.70;;;;;;;-144.73;84.32;54366.66;5074772;28;20108;-71
2023/03/01 02:49:35;;;;;;;40.13;17.17;;;;;;;-144.73;84.01;54337.91;5077070;28;20059;-71
2023/03/01 02:52:16;;;;;;;41.40;17.23;;;;;;;-144.73;84.22;54337.91;5077683;28;20119;-71
2023/03/01 02:54:59;;;;;;;42.20;17.60;;;;;;;-144.73;84.31;54383.06;5079237;28;20032;-71
2023/03/01 02:57:27;;;;;;;38.37;16.17;;;;;;;-144.73;83.75;54346.13;5087476;28;20027;-71
2023/03/01 02:59:54;;;;;;;33.20;16.27;;;;;;;-144.73;83.34;54381.00;5083315;28;20186;-71
2023/03/01 03:02:35;;;;;;;42.73;15.80;;;;;;;-144.73;83.10;54333.81;5077542;28;20076;-71
2023/03/01 03:05:26;;;;;;;36.33;16.33;;;;;;;-144.73;83.90;54358.44;5095151;28;20050;-70
2023/03/01 03:07:52;;;;;;;41.23;15.43;;;;;;;-144.73;83.51;54329.72;5076340;28;20075;-71
2023/03/01 03:10:25;;;;;;;38.47;16.23;;;;;;;-144.73;83.01;54391.28;5081714;28;20051;-72
2023/03/01 03:12:53;;;;;;;39.30;17.20;;;;;;;-144.73;83.15;54329.72;5082148;28;20024;-72
2023/03/01 03:15:20;;;;;;;37.77;16.80;;;;;;;-144.73;83.30;54335.88;5074422;28;20031;-72
2023/03/01 03:17:46;;;;;;;44.27;16.10;;;;;;;-144.73;83.65;54358.44;5079260;28;20017;-72
2023/03/01 03:20:18;;;;;;;36.43;15.83;;;;;;;-144.73;84.10;54362.53;5076195;28;20063;-72
2023/03/01 03:22:46;;;;;;;38.17;17.50;;;;;;;-144.73;86.58;54366.66;5078360;28;20024;-72
2023/03/01 03:25:11;;;;;;;38.63;17.07;;;;;;;-144.73;85.83;54362.53;5092223;28;20021;-72
2023/03/01 03:27:42;;;;;;;36.43;17.37;;;;;;;-144.73;85.17;54387.19;5106312;28;20054;-72
2023/03/01 03:30:11;;;;;;;31.65;15.23;;;;;;;-144.73;84.74;54346.13;5082912;28;20059;-72
2023/03/01 03:32:38;;;;;;;38.37;15.43;;;;;;;-144.73;84.53;54327.66;5093932;28;20035;-72
2023/03/01 03:35:09;;;;;;;35.13;16.30;;;;;;;-144.73;84.03;54374.84;5082040;28;20050;-72
2023/03/01 03:40:24;;;;;;;33.37;15.97;;;;;;;-144.73;84.35;54374.84;5098931;28;20130;-72
2023/03/01 03:42:49;;;;;;;44.93;16.83;;;;;;;-144.73;84.22;54391.28;5073845;28;20020;-72
2023/03/01 03:45:16;;;;;;;38.93;16.17;;;;;;;-144.73;83.94;54337.91;5101263;28;20086;-72
2023/03/01 03:47:42;;;;;;;37.17;17.13;;;;;;;-144.73;84.71;54370.75;5074559;28;20027;-72
2023/03/01 03:50:10;;;;;;;39.83;16.20;;;;;;;-144.73;83.99;54391.28;5101414;28;20016;-72
2023/03/01 03:52:35;;;;;;;36.33;16.07;;;;;;;-144.73;83.63;54346.13;5090356;28;20024;-72
2023/03/01 03:55:00;;;;;;;36.87;15.70;;;;;;;-144.73;83.48;54350.22;5085588;28;20024;-71
2023/03/01 03:57:26;;;;;;;33.13;14.67;;;;;;;-144.73;83.88;54337.91;5098878;28;20020;-72
2023/03/01 03:59:51;;;;;;;32.07;14.33;;;;;;;-144.73;83.75;54391.28;5072445;28;20055;-72
2023/03/01 04:02:21;;;;;;;33.30;15.60;;;;;;;-144.73;84.38;54350.22;5089526;28;20071;-72
2023/03/01 04:04:49;;;;;;;35.97;15.67;;;;;;;-144.73;84.47;54387.19;5081938;28;20032;-72
2023/03/01 04:07:15;;;;;;;38.20;14.80;;;;;;;-144.73;83.92;54354.34;5072567;28;20071;-72
2023/03/01 04:09:42;;;;;;;33.17;14.90;;;;;;;-144.73;83.94;54339.97;5081650;28;20073;-72
2023/03/01 04:12:08;;;;;;;32.47;15.00;;;;;;;-144.73;82.97;54354.34;5080761;28;20044;-72
2023/03/01 04:14:33;;;;;;;44.20;15.03;;;;;;;-144.73;83.05;54391.28;5079096;28;20133;-72
2023/03/01 04:16:58;;;;;;;43.90;15.63;;;;;;;-144.73;82.80;54346.13;5102652;28;20024;-72
2023/03/01 04:19:24;;;;;;;44.43;15.53;;;;;;;-144.73;82.29;54378.97;5080991;28;20081;-72
2023/03/01 04:21:49;;;;;;;38.27;14.27;;;;;;;-144.73;82.27;54348.19;5072350;28;20082;-72
2023/03/01 04:24:15;;;;;;;43.30;14.97;;;;;;;-144.73;82.70;54395.38;5073137;28;20028;-72
2023/03/01 04:26:40;;;;;;;33.00;14.47;;;;;;;-144.73;82.29;54362.53;5083805;28;20028;-72
2023/03/01 04:29:06;;;;;;;41.43;14.63;;;;;;;-144.73;82.50;54374.84;5083302;28;20047;-72
2023/03/01 04:31:32;;;;;;;31.67;12.90;;;;;;;-144.73;83.60;54346.13;5084167;28;20065;-72
2023/03/01 04:33:57;;;;;;;32.47;14.30;;;;;;;-144.73;83.31;54354.34;5089663;28;20031;-72
2023/03/01 04:36:25;;;;;;;36.37;14.77;;;;;;;-144.73;82.51;54374.84;5102448;28;20027;-72
2023/03/01 04:38:51;;;;;;;30.27;14.10;;;;;;;-144.73;81.81;54337.91;5077894;28;20020;-72
2023/03/01 04:41:18;;;;;;;31.63;14.70;;;;;;;-144.73;81.85;54395.38;5072530;28;20093;-72
2023/03/01 04:43:44;;;;;;;40.63;14.87;;;;;;;-144.73;81.53;54366.66;5080847;28;20553;-72
2023/03/01 04:46:15;;;;;;;30.17;14.07;;;;;;;-144.73;81.45;54362.53;5080080;28;20024;-72
2023/03/01 04:48:42;;;;;;;32.88;14.70;;;;;;;-144.73;81.61;54385.13;5075799;28;20020;-72
2023/03/01 04:51:08;;;;;;;37.63;14.87;;;;;;;-144.73;82.25;54358.44;5090005;28;20039;-72
2023/03/01 04:53:35;;;;;;;29.43;15.17;;;;;;;-144.73;81.89;54415.91;5081238;28;20024;-72
2023/03/01 04:56:02;;;;;;;36.42;14.30;;;;;;;-144.73;81.98;54362.53;5080106;28;20035;-72
2023/03/01 04:58:28;;;;;;;30.77;14.13;;;;;;;-144.73;82.10;54407.69;5072678;28;20101;-72
2023/03/01 05:00:54;;;;;;;35.60;14.20;;;;;;;-144.73;82.51;54407.69;5079411;28;20043;-72
2023/03/01 05:03:21;;;;;;;33.47;13.83;;;;;;;-144.73;82.25;54354.34;5099979;28;20051;-72
2023/03/01 05:05:48;;;;;;;36.35;14.38;;;;;;;-144.73;82.07;54372.81;5071703;28;20063;-72
2023/03/01 05:08:17;;;;;;;28.77;13.68;;;;;;;-144.73;81.69;54362.53;5082859;28;20076;-72
2023/03/01 05:11:01;;;;;;;36.70;13.80;;;;;;;-144.73;82.03;54387.19;5077192;28;20093;-72
2023/03/01 05:13:28;;;;;;;31.53;13.67;;;;;;;-144.73;81.81;54337.91;5076009;28;20464;-72
2023/03/01 05:15:58;;;;;;;29.97;13.63;;;;;;;-144.73;81.56;54424.13;5076156;28;20035;-72
2023/03/01 05:18:28;;;;;;;41.27;14.10;;;;;;;-144.73;82.14;54358.44;5108792;28;20024;-72
2023/03/01 05:21:03;;;;;;;30.93;14.03;;;;;;;-144.73;81.94;54389.22;5101967;28;20031;-72
2023/03/01 05:23:30;;;;;;;29.92;14.18;;;;;;;-144.73;81.60;54411.81;5080529;28;20085;-72
2023/03/01 05:25:59;;;;;;;34.37;13.60;;;;;;;-144.73;81.49;54350.22;5071454;28;20032;-72
2023/03/01 05:28:25;;;;;;;31.63;13.50;;;;;;;-144.73;83.34;54366.66;5075816;28;20153;-72
2023/03/01 05:30:51;;;;;;;29.73;13.17;;;;;;;-144.73;84.30;54387.19;5083994;28;20028;-72
2023/03/01 05:33:17;;;;;;;29.27;13.57;;;;;;;-144.73;83.76;54366.66;5076874;28;20031;-72
2023/03/01 05:35:43;;;;;;;32.27;13.97;;;;;;;-144.73;83.70;54395.38;5088226;28;20115;-72
2023/03/01 05:38:12;;;;;;;28.17;13.60;;;;;;;-144.73;82.98;54378.97;5083085;28;20038;-72
2023/03/01 05:40:38;;;;;;;25.30;13.88;;;;;;;-144.73;81.93;54366.66;5073632;28;20043;-72
2023/03/01 05:43:05;;;;;;;37.07;14.77;;;;;;;-144.73;81.84;54387.19;5084148;28;20039;-71
2023/03/01 05:45:32;;;;;;;32.33;14.87;;;;;;;-144.73;81.78;54374.84;5079449;28;20036;-71
2023/03/01 05:47:57;;;;;;;29.83;13.75;;;;;;;-144.73;81.95;54378.97;5080503;28;20035;-71
2023/03/01 05:50:25;;;;;;;34.63;15.43;;;;;;;-144.73;82.84;54350.22;5090088;28;20024;-71
2023/03/01 05:52:56;;;;;;;30.70;14.77;;;;;;;-144.73;82.13;54362.53;5101703;28;20034;-72
2023/03/01 05:55:23;;;;;;;38.50;16.98;;;;;;;-144.73;81.95;54387.19;5072322;28;20277;-71
2023/03/01 05:57:49;;;;;;;43.80;17.08;;;;;;;-144.73;82.03;54378.97;5083162;28;20103;-71
2023/03/01 06:00:17;;;;;;;41.47;15.40;;;;;;;-144.73;80.97;54358.44;5083381;28;20161;-71
2023/03/01 06:02:43;;;;;;;44.57;17.03;;;;;;;-144.73;81.09;54362.53;5101760;28;20024;-72
2023/03/01 06:05:10;;;;;;;34.83;14.32;;;;;;;-144.73;82.16;54370.75;5102523;28;20053;-72
2023/03/01 06:07:36;;;;;;;30.95;12.57;;;;;;;-144.73;81.91;54391.28;5092250;28;20028;-72
2023/03/01 06:10:03;;;;;;;24.60;12.70;;;;;;;-144.73;80.44;54378.97;5087646;28;20329;-73
2023/03/01 06:12:33;;;;;;;39.28;14.68;;;;;;;-144.73;80.18;54378.97;5086970;28;20072;-72
2023/03/01 06:14:59;;;;;;;34.70;15.25;;;;;;;-144.73;81.54;54362.53;5079370;28;20066;-72
2023/03/01 06:17:25;;;;;;;42.67;13.93;;;;;;;-144.73;82.64;54370.75;5074464;28;20504;-72
2023/03/01 06:19:50;;;;;;;30.23;14.23;;;;;;;-144.73;81.42;54415.91;5083744;28;20031;-72
2023/03/01 06:22:16;;;;;;;29.58;12.60;;;;;;;-144.73;81.13;54387.19;5083303;28;20055;-72
2023/03/01 06:24:41;;;;;;;40.37;13.80;;;;;;;-144.73;81.11;54385.13;5107010;28;20095;-72
2023/03/01 06:27:07;;;;;;;32.10;14.93;;;;;;;-144.73;80.22;54411.81;5086720;28;20028;-72
2023/03/01 06:29:32;;;;;;;39.20;15.77;;;;;;;-144.73;80.25;54370.75;5091792;28;20028;-72
2023/03/01 06:31:57;;;;;;;43.43;15.77;;;;;;;-144.73;82.04;54399.50;5086635;28;20107;-72
2023/03/01 06:34:23;;;;;;;33.35;14.73;;;;;;;-144.73;81.36;54374.84;5099308;28;20165;-72
2023/03/01 06:36:48;;;;;;;23.70;12.60;;;;;;;-144.73;80.10;54391.28;5086190;28;20085;-71
2023/03/01 06:39:13;;;;;;;32.05;13.73;;;;;;;-144.73;79.47;54395.38;5089560;28;20020;-72
2023/03/01 06:41:39;;;;;;;26.25;13.48;;;;;;;-144.73;77.45;54387.19;5081826;28;20103;-72
2023/03/01 06:44:04;;;;;;;28.08;13.82;;;;;;;-144.73;77.52;54387.19;5089695;28;20028;-72
2023/03/01 06:46:30;;;;;;;31.08;12.85;;;;;;;-144.73;76.70;54346.13;5083122;28;20059;-72
2023/03/01 06:48:55;;;;;;;31.98;14.20;;;;;;;-144.73;76.60;54358.44;5088936;28;20073;-72
2023/03/01 06:51:20;;;;;;;29.67;14.35;;;;;;;-144.73;75.53;54358.44;5080936;28;20504;-72
2023/03/01 06:53:46;;;;;;;23.13;12.45;;;;;;;-144.73;75.58;54329.72;5085841;28;20016;-72
2023/03/01 06:56:12;;;;;;;30.60;13.00;;;;;;;-144.73;74.72;54354.34;5088432;28;20070;-72
2023/03/01 06:58:37;;;;;;;51.45;13.05;;;;;;;-144.73;74.44;54370.75;5086219;28;20020;-72
2023/03/01 07:01:06;;;;;;;28.63;13.00;;;;;;;-144.73;74.20;54354.34;5106342;28;20106;-72
2023/03/01 07:03:32;;;;;;;30.08;11.73;;;;;;;-144.73;74.08;54346.13;5085957;28;20093;-73
2023/03/01 07:05:57;;;;;;;29.38;11.60;;;;;;;-144.73;73.09;54370.75;5085690;28;20032;-73
2023/03/01 07:08:22;;;;;;;24.17;10.80;;;;;;;-144.73;72.48;54395.38;5101087;28;20086;-73
2023/03/01 07:10:48;;;;;;;19.98;10.65;;;;;;;-144.73;70.76;54387.19;5079294;28;20032;-73
2023/03/01 07:13:14;;;;;;;23.60;9.80;;;;;;;-144.73;70.45;54407.69;5080517;28;20114;-73
2023/03/01 07:15:40;;;;;;;20.60;9.90;;;;;;;-144.73;69.74;54317.38;5088113;28;20362;-72
2023/03/01 07:18:05;;;;;;;26.23;9.63;;;;;;;-144.73;68.72;54383.06;5087730;28;20029;-72
2023/03/01 07:20:30;;;;;;;21.95;10.80;;;;;;;-144.73;68.38;54370.75;5082844;28;20096;-73
2023/03/01 07:22:58;;;;;;;19.08;9.63;;;;;;;-144.73;68.62;54358.44;5081157;28;20375;-73
2023/03/01 07:25:24;;;;;;;24.85;9.23;;;;;;;-144.73;69.23;54391.28;5103918;28;20020;-72
2023/03/01 07:27:51;;;;;;;20.60;9.18;;;;;;;-144.73;68.23;54317.38;5083109;28;20092;-72
2023/03/01 07:30:17;;;;;;;24.13;11.35;;;;;;;-144.73;68.82;54366.66;5089565;28;20020;-72
2023/03/01 07:32:42;;;;;;;19.67;10.35;;;;;;;-144.73;69.20;54391.28;5075361;28;20086;-70
2023/03/01 07:35:08;;;;;;;23.85;10.82;;;;;;;-144.73;69.80;54354.34;5086094;28;20027;-71
2023/03/01 07:37:33;;;;;;;32.55;11.00;;;;;;;-144.73;69.53;54346.13;5100498;28;20039;-69
2023/03/01 07:39:58;;;;;;;21.65;9.40;;;;;;;-144.73;69.82;54370.75;5073225;28;20074;-70
2023/03/01 07:42:24;;;;;;;26.02;11.45;;;;;;;-144.73;69.77;54370.75;5092019;28;20039;-69
2023/03/01 07:44:49;;;;;;;27.85;10.68;;;;;;;-144.73;69.16;54374.84;5085393;28;20030;-70
2023/03/01 07:47:14;;;;;;;21.35;9.82;;;;;;;-144.73;69.30;54383.06;5086281;28;20032;-72
2023/03/01 07:49:40;;;;;;;26.10;9.73;;;;;;;-144.73;68.64;54350.22;5091893;28;20088;-70
2023/03/01 07:52:05;;;;;;;24.83;10.55;;;;;;;-144.73;68.44;54350.22;5076724;28;20404;-70
2023/03/01 07:54:30;;;;;;;27.23;11.63;;;;;;;-144.73;68.60;54378.97;5081572;28;20012;-70
2023/03/01 07:56:56;;;;;;;23.77;10.52;;;;;;;-144.73;68.50;54337.91;5068194;28;20036;-70
2023/03/01 07:59:23;;;;;;;27.48;11.82;;;;;;;-144.73;69.04;54305.06;5075701;28;20024;-69
2023/03/01 08:01:49;;;;;;;30.52;12.95;;;;;;;-144.73;69.42;54370.75;5071149;28;20413;-70
2023/03/01 08:04:14;;;;;;;23.75;11.90;;;;;;;-144.73;70.11;54391.28;5093078;28;20114;-70
2023/03/01 08:06:39;;;;;;;26.75;12.73;;;;;;;-144.73;70.51;54352.28;5074174;28;20036;-70
2023/03/01 08:09:05;;;;;;;23.92;13.60;;;;;;;-144.73;70.71;54378.97;5078627;28;20111;-70
2023/03/01 08:11:30;;;;;;;43.17;13.55;;;;;;;-144.73;71.54;54358.44;5087176;28;20029;-70
2023/03/01 08:13:56;;;;;;;39.72;15.10;;;;;;;-144.73;73.42;54354.34;5067643;28;20488;-70
2023/03/01 08:16:21;;;;;;;29.40;15.32;;;;;;;-144.73;73.29;54407.69;5071366;28;20059;-70
2023/03/01 08:18:47;;;;;;;28.45;14.65;;;;;;;-144.73;73.85;54346.13;5095526;28;20488;-70
2023/03/01 08:21:16;;;;;;;33.13;15.23;;;;;;;-144.73;72.96;54374.84;5076365;28;20111;-70
2023/03/01 08:23:41;;;;;;;31.25;14.88;;;;;;;-144.73;72.84;54393.34;5075229;28;20027;-70
2023/03/01 08:26:10;;;;;;;26.77;14.63;;;;;;;-144.73;72.82;54378.97;5094859;28;20028;-70
2023/03/01 08:28:36;;;;;;;34.28;14.77;;;;;;;-144.73;72.12;54362.53;5077403;28;20380;-70
2023/03/01 08:31:02;;;;;;;30.10;14.80;;;;;;;-144.73;70.90;54383.06;5076204;28;20028;-72
2023/03/01 08:33:27;;;;;;;29.48;15.18;;;;;;;-144.73;71.24;54329.72;5077138;28;20016;-70
2023/03/01 08:35:52;;;;;;;28.67;14.73;;;;;;;-144.73;70.96;54391.28;5099203;28;20502;-70
2023/03/01 08:38:18;;;;;;;30.08;15.23;;;;;;;-144.73;70.68;54368.69;5073512;28;20072;-72
2023/03/01 08:40:43;;;;;;;43.15;13.75;;;;;;;-144.73;70.70;54387.19;5074130;28;20116;-70
2023/03/01 08:43:08;;;;;;;27.02;14.10;;;;;;;-144.73;70.42;54350.22;5090763;28;20020;-70
2023/03/01 08:45:34;;;;;;;27.92;13.80;;;;;;;-144.73;70.38;54376.91;5072967;28;20066;-71
2023/03/01 08:47:59;;;;;;;30.42;13.77;;;;;;;-144.73;70.31;54381.00;5073808;28;20085;-70
2023/03/01 08:50:26;;;;;;;33.90;14.93;;;;;;;-144.73;69.65;54395.38;5069493;28;20044;-70
2023/03/01 08:52:51;;;;;;;31.30;16.02;;;;;;;-144.73;70.20;54358.44;5080357;28;20038;-70
2023/03/01 08:55:17;;;;;;;28.88;12.00;;;;;;;-144.73;70.60;54342.03;5066495;28;20032;-70
2023/03/01 08:57:43;;;;;;;31.65;14.40;;;;;;;-144.73;71.46;54374.84;5070905;28;20157;-70
2023/03/01 09:00:11;;;;;;;29.45;14.35;;;;;;;-144.73;70.22;54413.84;5081875;28;20019;-70
2023/03/01 09:02:37;;;;;;;26.73;13.23;;;;;;;-144.73;69.56;54374.84;5095341;28;20032;-71
2023/03/01 09:05:03;;;;;;;33.17;14.52;;;;;;;-144.73;69.36;54387.19;5072735;28;20050;-70
2023/03/01 09:07:28;;;;;;;31.85;15.52;;;;;;;-144.73;70.25;54358.44;5083675;28;20508;-70
2023/03/01 09:09:54;;;;;;;32.80;15.35;;;;;;;-144.73;70.28;54395.38;5073423;28;20510;-70
2023/03/01 09:12:21;;;;;;;28.75;14.82;;;;;;;-144.73;70.76;54358.44;5076940;28;20032;-71
2023/03/01 09:14:46;;;;;;;31.48;16.38;;;;;;;-144.73;71.47;54378.97;5066116;28;20034;-71
2023/03/01 09:17:11;;;;;;;34.00;15.23;;;;;;;-144.73;72.17;54309.19;5071609;28;20032;-72
2023/03/01 09:19:37;;;;;;;33.97;14.25;;;;;;;-144.73;70.69;54354.34;5073794;28;20059;-70
2023/03/01 09:22:03;;;;;;;42.53;16.25;;;;;;;-144.73;69.97;54366.66;5091378;28;20088;-70
2023/03/01 09:24:29;;;;;;;30.52;15.48;;;;;;;-144.73;69.75;54358.44;5088898;28;20142;-70
2023/03/01 09:26:55;;;;;;;29.08;15.10;;;;;;;-144.73;69.93;54342.03;5065754;28;20122;-71
2023/03/01 09:29:21;;;;;;;33.53;16.65;;;;;;;-144.73;69.60;54362.53;5075861;28;20039;-71
2023/03/01 09:31:46;;;;;;;31.17;15.68;;;;;;;-144.73;69.45;54333.81;5093085;28;20032;-72
2023/03/01 09:34:13;;;;;;;32.92;15.70;;;;;;;-144.73;70.04;54378.97;5095886;28;20103;-72
2023/03/01 09:36:39;;;;;;;30.75;16.70;;;;;;;-144.73;69.48;54350.22;5085442;28;20039;-72
2023/03/01 09:39:07;;;;;;;31.63;14.85;;;;;;;-144.73;69.15;54383.06;5074150;28;20032;-72
2023/03/01 09:41:44;;;;;;;30.63;16.40;;;;;;;-144.73;70.14;54383.06;5082377;28;20040;-72
2023/03/01 09:44:18;;;;;;;29.08;15.35;;;;;;;-144.73;70.54;54378.97;5097601;28;20023;-70
2023/03/01 09:46:45;;;;;;;38.20;16.77;;;;;;;-144.73;70.50;54342.03;5071008;28;20127;-70
2023/03/01 09:49:17;;;;;;;27.15;16.40;;;;;;;-144.73;71.00;54354.34;5076872;28;20055;-70
2023/03/01 09:51:54;;;;;;;48.28;16.77;;;;;;;-144.73;71.21;54378.97;5086140;28;20097;-70
2023/03/01 09:54:19;;;;;;;32.90;16.05;;;;;;;-144.73;71.26;54346.13;5080659;28;20024;-70
2023/03/01 09:57:04;;;;;;;35.05;17.85;;;;;;;-144.73;70.90;54366.66;5095371;28;20048;-72
2023/03/01 09:59:38;;;;;;;32.33;16.55;;;;;;;-144.73;71.25;54387.19;5077537;28;20024;-70
2023/03/01 10:02:23;;;;;;;39.65;16.63;;;;;;;-144.73;71.06;54378.97;5092508;28;20071;-71
2023/03/01 10:05:03;;;;;;;35.10;16.23;;;;;;;-144.73;70.75;54321.50;5079554;28;20505;-71
2023/03/01 10:07:50;;;;;;;29.77;14.75;;;;;;;-144.73;70.29;54374.84;5103539;27;20043;-71
2023/03/01 10:10:27;;;;;;;28.17;16.40;;;;;;;-144.73;69.62;54387.19;5087882;28;20036;-71
2023/03/01 10:12:53;;;;;;;27.92;15.10;;;;;;;-144.73;70.54;54346.13;5069808;28;20032;-70
2023/03/01 10:15:29;;;;;;;29.65;14.52;;;;;;;-144.73;71.29;54395.38;5077030;28;20028;-71
2023/03/01 10:18:07;;;;;;;36.03;14.70;;;;;;;-144.73;70.71;54325.59;5076249;28;20031;-71
2023/03/01 10:20:49;;;;;;;30.45;14.85;;;;;;;-144.73;70.83;54368.69;5067454;28;20032;-71
2023/03/01 10:23:15;;;;;;;25.13;13.70;;;;;;;-144.73;70.03;54383.06;5099489;28;20175;-71
2023/03/01 10:25:47;;;;;;;22.13;13.38;;;;;;;-144.73;69.18;54374.84;5071618;28;20395;-71
2023/03/01 10:28:29;;;;;;;25.00;12.50;;;;;;;-144.73;69.33;54372.81;5077821;28;20052;-70
2023/03/01 10:30:57;;;;;;;28.67;14.00;;;;;;;-144.73;68.71;54366.66;5070478;28;20032;-70
2023/03/01 10:33:32;;;;;;;26.63;12.32;;;;;;;-144.73;69.81;54378.97;5077126;28;20144;-70
2023/03/01 10:35:57;;;;;;;26.63;12.52;;;;;;;-144.73;69.45;54407.69;5086903;28;20055;-71
2023/03/01 10:38:23;;;;;;;29.60;12.43;;;;;;;-144.73;69.32;54370.75;5081430;28;20058;-71
2023/03/01 10:41:05;;;;;;;22.38;11.20;;;;;;;-144.73;70.56;54407.69;5068971;28;20040;-71
2023/03/01 10:43:53;;;;;;;26.90;13.25;;;;;;;-144.73;70.28;54374.84;5077971;28;20039;-71
2023/03/01 10:46:29;;;;;;;23.98;13.30;;;;;;;-144.73;70.66;54366.66;5074753;28;20028;-70
2023/03/01 10:49:07;;;;;;;25.15;11.85;;;;;;;-144.73;71.35;54313.28;5070062;28;20052;-71
2023/03/01 10:51:32;;;;;;;27.90;12.52;;;;;;;-144.73;70.77;54358.44;5073983;28;20029;-71
2023/03/01 10:53:58;;;;;;;24.50;13.13;;;;;;;-144.73;70.92;54407.69;5098986;28;20525;-71
2023/03/01 10:56:25;;;;;;;23.08;13.20;;;;;;;-144.73;70.24;54370.75;5079023;28;20034;-70
2023/03/01 10:59:03;;;;;;;22.30;12.27;;;;;;;-144.73;70.67;54366.66;5074495;28;20024;-71
2023/03/01 11:01:32;;;;;;;29.52;13.82;;;;;;;-144.73;69.68;54378.97;5094681;28;20516;-72
2023/03/01 11:04:12;;;;;;;27.75;12.13;;;;;;;-144.73;69.43;54383.06;5085836;28;20020;-71
2023/03/01 11:06:40;;;;;;;26.02;13.07;;;;;;;-144.73;69.85;54374.84;5077622;28;20131;-71
2023/03/01 11:09:24;;;;;;;30.00;13.32;;;;;;;-144.73;68.99;54333.81;5095791;28;20055;-71